Accueil
METAR-TAF:

METAR-TAF

Aéroports :

Solenzara, France

Base aérienne 126 Solenzara

latitude: 41-55N, longitude: 009-24E, altitude: 8 m

Observation

Le bulletin a été fait il y a 35 minutes, à 12:00 UTC
Vent 7 kt de est, variant entre est/nord-est et est/sud-est
Température 30°C
Humidité 66%
Pression 1014 hPa
Visibilité 10 km ou plus
Quelques nuages à une hauteur de 5600 ft

METAR: LFKS 221200Z AUTO 08007KT 060V120 9999 FEW056 30/23 Q1014

Heure: 14:35 (12:35 UTC)

Prévision

Le bulletin a été fait il y a 22 heures et 35 minutes, à 14:00 UTC
Prévision valable du 21 à 15 UTC au 22 à 15 UTC
Vent 10 kt de sud-est
Visibilité 10 km ou plus
Quelques nuages à une hauteur de 2000 ft
Nuages épars à une hauteur de 3000 ft
Evoluant progressivement
du 21 à 19 UTC au 21 à 21 UTC
Vent 3 kt de ouest

TAF: LFKS 211400Z 2115/2215 13010KT 9999 FEW020 SCT030 BECMG 2119/2121 27003KT

Observations et prévisions météorologiques de plus de 4000 aéroports (messages METAR et TAF).

Les stations disponibles sont représentées par des disques jaunes et rouges sur la carte.

Passer la souris dessus pour voir le nom de la station.

Cliquer dessus pour voir les observations et prévisions météorologiques.

Pour changer de carte: cliquez sur les boutons verts avec une croix noire pour zoomer, sur le bouton vert avec un tiret pour effectuer un zoom arrière, ou sur les flèches vertes pour les cartes adjacentes.


METAR-TAF: